Time;durP1;ratioP1;P1;durP2;ratioP2;P2;SDS_P1;SDS_P2;PMS_P1;PMS_P2;Temp;Humidity;BMP_temperature;BMP_pressure;BME280_temperature;BME280_humidity;BME280_pressure;Samples;Min_cycle;Max_cycle;Signal;HPM_P1;HPM_P2
2022/12/10 00:01:10;;;;;;;83.10;36.72;;;;;;;;;;5003952;28;20026;-74
2022/12/10 00:03:37;;;;;;;75.68;35.80;;;;;;;;;;5002729;28;20033;-71
2022/12/10 00:06:04;;;;;;;73.13;38.05;;;;;;;;;;5007889;28;20026;-71
2022/12/10 00:08:30;;;;;;;76.93;38.45;;;;;;;;;;5013540;28;20033;-71
2022/12/10 00:10:57;;;;;;;78.55;36.58;;;;;;;;;;5012557;28;20114;-71
2022/12/10 00:13:23;;;;;;;76.55;36.65;;;;;;;;;;4988182;28;20033;-71
2022/12/10 00:15:49;;;;;;;76.82;37.03;;;;;;;;;;5007609;28;20376;-70
2022/12/10 00:18:15;;;;;;;81.68;36.83;;;;;;;;;;5012830;28;20029;-71
2022/12/10 00:20:41;;;;;;;69.25;33.90;;;;;;;;;;5009024;28;20065;-72
2022/12/10 00:23:07;;;;;;;75.88;36.13;;;;;;;;;;5006170;28;20044;-71
2022/12/10 00:25:33;;;;;;;74.28;36.47;;;;;;;;;;4981519;28;20113;-71
2022/12/10 00:27:59;;;;;;;81.13;38.10;;;;;;;;;;5010693;28;20033;-72
2022/12/10 00:30:25;;;;;;;71.90;35.33;;;;;;;;;;5016846;28;20386;-70
2022/12/10 00:32:51;;;;;;;74.82;35.85;;;;;;;;;;5011104;28;20597;-71
2022/12/10 00:35:17;;;;;;;74.82;35.35;;;;;;;;;;5010020;28;20156;-71
2022/12/10 00:37:44;;;;;;;72.85;36.83;;;;;;;;;;5017749;28;20049;-71
2022/12/10 00:40:13;;;;;;;71.32;36.30;;;;;;;;;;5009055;28;20557;-70
2022/12/10 00:42:39;;;;;;;90.82;41.75;;;;;;;;;;4981647;28;20030;-72
2022/12/10 00:45:05;;;;;;;120.75;47.40;;;;;;;;;;5011195;28;20402;-73
2022/12/10 00:47:31;;;;;;;86.63;39.78;;;;;;;;;;5010224;28;20434;-71
2022/12/10 00:49:57;;;;;;;82.72;38.35;;;;;;;;;;5002589;28;20034;-70
2022/12/10 00:52:23;;;;;;;95.60;38.83;;;;;;;;;;5009828;28;20038;-69
2022/12/10 00:54:49;;;;;;;96.30;42.67;;;;;;;;;;5008869;28;20038;-71
2022/12/10 00:57:15;;;;;;;105.80;45.95;;;;;;;;;;5008080;28;20021;-70
2022/12/10 00:59:41;;;;;;;102.47;44.70;;;;;;;;;;5023488;28;20040;-70
2022/12/10 01:02:07;;;;;;;101.70;44.88;;;;;;;;;;4992527;28;20435;-71
2022/12/10 01:04:33;;;;;;;115.13;47.13;;;;;;;;;;5014021;28;20034;-70
2022/12/10 01:06:59;;;;;;;93.40;39.85;;;;;;;;;;5009107;28;20155;-71
2022/12/10 01:09:27;;;;;;;99.40;45.53;;;;;;;;;;5007106;28;20029;-71
2022/12/10 01:11:53;;;;;;;92.50;38.78;;;;;;;;;;5007174;28;20078;-71
2022/12/10 01:14:21;;;;;;;82.28;38.75;;;;;;;;;;4990618;28;20065;-71
2022/12/10 01:16:47;;;;;;;78.35;36.67;;;;;;;;;;4998427;28;20451;-70
2022/12/10 01:19:13;;;;;;;73.10;35.97;;;;;;;;;;5007782;28;20066;-70
2022/12/10 01:21:39;;;;;;;77.10;37.38;;;;;;;;;;4995544;28;20069;-70
2022/12/10 01:24:06;;;;;;;83.40;38.47;;;;;;;;;;5007047;28;20060;-71
2022/12/10 01:26:33;;;;;;;84.07;41.78;;;;;;;;;;5000374;28;20026;-69
2022/12/10 01:29:00;;;;;;;80.15;38.30;;;;;;;;;;5012572;28;20025;-68
2022/12/10 01:31:30;;;;;;;75.13;37.17;;;;;;;;;;4999453;28;20117;-70
2022/12/10 01:34:00;;;;;;;79.50;36.15;;;;;;;;;;5010571;28;20037;-69
2022/12/10 01:36:26;;;;;;;73.88;36.70;;;;;;;;;;5007175;28;20471;-71
2022/12/10 01:38:52;;;;;;;73.60;36.20;;;;;;;;;;5011547;28;20037;-69
2022/12/10 01:41:20;;;;;;;78.25;36.88;;;;;;;;;;5006510;28;20076;-70
2022/12/10 01:43:51;;;;;;;70.97;34.63;;;;;;;;;;5009221;28;20029;-69
2022/12/10 01:46:17;;;;;;;70.95;34.15;;;;;;;;;;5006196;28;20022;-69
2022/12/10 01:48:43;;;;;;;67.03;34.38;;;;;;;;;;5006138;28;20072;-70
2022/12/10 01:51:10;;;;;;;68.75;33.60;;;;;;;;;;5012411;28;20038;-71
2022/12/10 01:53:36;;;;;;;81.13;35.53;;;;;;;;;;5008628;28;20046;-69
2022/12/10 01:56:03;;;;;;;68.47;32.65;;;;;;;;;;4990860;28;20411;-70
2022/12/10 01:58:29;;;;;;;74.82;35.03;;;;;;;;;;5012089;28;20025;-71
2022/12/10 02:01:05;;;;;;;68.28;34.45;;;;;;;;;;5006821;28;20029;-71
2022/12/10 02:03:34;;;;;;;75.60;36.45;;;;;;;;;;4996215;28;20120;-70
2022/12/10 02:06:12;;;;;;;73.22;35.65;;;;;;;;;;5013831;28;20058;-71
2022/12/10 02:08:41;;;;;;;73.03;35.85;;;;;;;;;;5018328;28;20038;-69
2022/12/10 02:11:07;;;;;;;66.68;34.35;;;;;;;;;;5010889;28;20031;-72
2022/12/10 02:13:36;;;;;;;72.72;35.15;;;;;;;;;;5014841;28;20033;-73
2022/12/10 02:16:10;;;;;;;70.03;33.20;;;;;;;;;;5013597;28;20038;-69
2022/12/10 02:18:39;;;;;;;67.20;34.50;;;;;;;;;;5019623;28;20571;-69
2022/12/10 02:21:08;;;;;;;76.18;34.63;;;;;;;;;;4990319;28;20331;-71
2022/12/10 02:23:36;;;;;;;75.00;36.80;;;;;;;;;;5009581;28;20026;-71
2022/12/10 02:26:21;;;;;;;76.72;36.67;;;;;;;;;;5019226;28;20119;-69
2022/12/10 02:28:53;;;;;;;75.38;36.28;;;;;;;;;;5010434;28;20445;-69
2022/12/10 02:31:22;;;;;;;73.63;34.45;;;;;;;;;;5020972;28;20025;-69
2022/12/10 02:33:50;;;;;;;83.38;37.05;;;;;;;;;;4991110;28;20487;-69
2022/12/10 02:36:18;;;;;;;71.53;35.55;;;;;;;;;;5013933;28;20072;-71
2022/12/10 02:38:44;;;;;;;75.97;34.88;;;;;;;;;;5003969;28;20511;-70
2022/12/10 02:41:19;;;;;;;76.35;35.55;;;;;;;;;;5014383;28;20075;-71
2022/12/10 02:43:50;;;;;;;70.13;34.35;;;;;;;;;;5017404;28;20457;-72
2022/12/10 02:46:16;;;;;;;75.22;35.55;;;;;;;;;;4997093;28;20383;-71
2022/12/10 02:48:42;;;;;;;73.32;35.65;;;;;;;;;;5015916;28;20025;-72
2022/12/10 02:51:08;;;;;;;74.85;36.05;;;;;;;;;;4994538;28;20046;-70
2022/12/10 02:53:41;;;;;;;80.07;35.22;;;;;;;;;;5011807;28;20058;-69
2022/12/10 02:56:07;;;;;;;76.43;35.47;;;;;;;;;;5015732;28;20022;-69
2022/12/10 02:58:45;;;;;;;81.07;37.22;;;;;;;;;;5012221;28;20076;-69
2022/12/10 03:01:18;;;;;;;84.85;37.40;;;;;;;;;;5010395;28;20104;-69
2022/12/10 03:03:44;;;;;;;80.40;36.13;;;;;;;;;;5014799;28;20105;-69
2022/12/10 03:06:15;;;;;;;77.95;36.50;;;;;;;;;;5024225;28;20559;-69
2022/12/10 03:08:59;;;;;;;86.20;37.45;;;;;;;;;;5012385;28;20026;-70
2022/12/10 03:11:26;;;;;;;80.85;35.25;;;;;;;;;;4999352;28;20034;-70
2022/12/10 03:14:00;;;;;;;77.78;36.20;;;;;;;;;;5011315;28;20057;-71
2022/12/10 03:16:29;;;;;;;80.95;39.38;;;;;;;;;;5014348;28;20029;-71
2022/12/10 03:19:01;;;;;;;88.45;38.13;;;;;;;;;;5013268;28;20029;-72
2022/12/10 03:21:28;;;;;;;86.47;39.42;;;;;;;;;;4996465;28;20030;-71
2022/12/10 03:23:54;;;;;;;85.13;38.38;;;;;;;;;;5009694;28;20025;-72
2022/12/10 03:26:21;;;;;;;77.75;37.85;;;;;;;;;;5001301;28;20041;-71
2022/12/10 03:28:50;;;;;;;85.43;37.83;;;;;;;;;;4997623;28;20080;-69
2022/12/10 03:31:17;;;;;;;83.35;38.50;;;;;;;;;;5012434;28;20029;-70
2022/12/10 03:33:44;;;;;;;88.65;40.42;;;;;;;;;;4980505;28;20049;-71
2022/12/10 03:36:11;;;;;;;89.05;38.67;;;;;;;;;;5001279;28;20442;-69
2022/12/10 03:38:38;;;;;;;87.10;41.85;;;;;;;;;;5008369;28;20037;-69
2022/12/10 03:41:04;;;;;;;80.55;36.28;;;;;;;;;;4988909;28;20041;-69
2022/12/10 03:43:30;;;;;;;97.30;40.33;;;;;;;;;;5001757;28;20116;-69
2022/12/10 03:45:56;;;;;;;90.22;39.55;;;;;;;;;;5008875;28;20356;-70
2022/12/10 03:48:22;;;;;;;97.65;39.97;;;;;;;;;;5005493;28;20037;-69
2022/12/10 03:50:48;;;;;;;109.22;42.10;;;;;;;;;;5003215;28;20473;-70
2022/12/10 03:53:14;;;;;;;155.35;40.65;;;;;;;;;;5014981;28;20075;-70
2022/12/10 03:55:40;;;;;;;168.00;43.40;;;;;;;;;;5017186;28;20049;-70
2022/12/10 03:58:06;;;;;;;197.57;45.05;;;;;;;;;;5011969;28;20045;-69
2022/12/10 04:00:32;;;;;;;259.83;44.00;;;;;;;;;;5008033;28;20030;-69
2022/12/10 04:02:58;;;;;;;185.50;41.63;;;;;;;;;;5010556;28;20100;-70
2022/12/10 04:05:24;;;;;;;247.38;42.63;;;;;;;;;;5010452;28;20049;-70
2022/12/10 04:07:50;;;;;;;220.82;44.33;;;;;;;;;;5012216;28;20038;-70
2022/12/10 04:10:16;;;;;;;213.60;41.85;;;;;;;;;;5014387;28;20038;-70
2022/12/10 04:12:42;;;;;;;275.88;44.25;;;;;;;;;;5000736;28;20026;-71
2022/12/10 04:17:53;;;;;;;316.27;45.97;;;;;;;;;;5008290;28;20052;-69
2022/12/10 04:28:33;;;;;;;286.88;46.63;;;;;;;;;;5005038;28;20064;-70
2022/12/10 04:30:59;;;;;;;251.07;41.85;;;;;;;;;;4994033;28;20041;-70
2022/12/10 04:33:25;;;;;;;317.90;46.05;;;;;;;;;;5009759;28;20076;-69
2022/12/10 04:35:51;;;;;;;248.80;41.38;;;;;;;;;;5006173;28;20041;-69
2022/12/10 04:38:17;;;;;;;300.15;47.42;;;;;;;;;;5011415;28;20033;-69
2022/12/10 04:40:43;;;;;;;450.88;46.80;;;;;;;;;;5008156;28;20033;-70
2022/12/10 04:43:09;;;;;;;236.63;42.00;;;;;;;;;;5010407;28;20041;-69
2022/12/10 04:45:35;;;;;;;277.80;45.88;;;;;;;;;;5016065;28;20026;-69
2022/12/10 04:48:02;;;;;;;259.05;40.65;;;;;;;;;;4993365;28;20040;-69
2022/12/10 04:50:28;;;;;;;278.25;42.25;;;;;;;;;;5006321;28;20038;-70
2022/12/10 04:52:54;;;;;;;256.08;41.63;;;;;;;;;;4990088;28;20088;-69
2022/12/10 04:55:20;;;;;;;285.77;45.72;;;;;;;;;;5003424;28;20049;-71
2022/12/10 04:57:46;;;;;;;417.90;45.13;;;;;;;;;;5006950;28;20025;-71
2022/12/10 05:00:12;;;;;;;455.77;48.20;;;;;;;;;;5014354;28;20029;-70
2022/12/10 05:02:38;;;;;;;344.38;47.00;;;;;;;;;;5011314;28;20045;-70
2022/12/10 05:05:04;;;;;;;362.45;44.45;;;;;;;;;;5007928;28;20121;-70
2022/12/10 05:07:30;;;;;;;419.35;45.30;;;;;;;;;;5014677;28;20436;-70
2022/12/10 05:09:56;;;;;;;366.17;47.50;;;;;;;;;;5010362;28;20036;-70
2022/12/10 05:12:22;;;;;;;329.20;46.58;;;;;;;;;;5011984;28;20132;-71
2022/12/10 05:14:48;;;;;;;366.38;42.58;;;;;;;;;;4998692;28;20193;-70
2022/12/10 05:17:14;;;;;;;304.30;44.75;;;;;;;;;;4990980;28;20041;-69
2022/12/10 05:19:41;;;;;;;405.63;46.88;;;;;;;;;;5009552;28;20109;-70
2022/12/10 05:24:53;;;;;;;288.90;42.83;;;;;;;;;;5004140;28;20136;-70
2022/12/10 05:27:19;;;;;;;382.67;46.30;;;;;;;;;;5007868;28;20030;-70
2022/12/10 05:29:45;;;;;;;319.48;43.17;;;;;;;;;;4981897;28;20037;-70
2022/12/10 05:32:11;;;;;;;321.40;41.42;;;;;;;;;;5014228;28;20044;-69
2022/12/10 05:34:37;;;;;;;329.25;43.30;;;;;;;;;;5009707;28;20030;-69
2022/12/10 05:37:03;;;;;;;373.45;42.75;;;;;;;;;;4988406;28;20037;-69
2022/12/10 05:39:29;;;;;;;383.10;41.45;;;;;;;;;;4994868;28;20057;-70
2022/12/10 05:41:55;;;;;;;423.65;50.28;;;;;;;;;;5012624;28;20038;-71
2022/12/10 05:44:21;;;;;;;404.35;45.63;;;;;;;;;;4995867;28;20041;-70
2022/12/10 05:46:47;;;;;;;496.90;51.00;;;;;;;;;;5012089;28;20042;-70
2022/12/10 05:49:13;;;;;;;412.90;46.58;;;;;;;;;;5015144;28;20144;-69
2022/12/10 05:51:39;;;;;;;369.17;45.70;;;;;;;;;;5005947;28;20538;-70
2022/12/10 05:54:06;;;;;;;420.00;43.55;;;;;;;;;;5022390;28;20041;-69
2022/12/10 05:56:32;;;;;;;406.63;44.17;;;;;;;;;;5012379;28;20113;-70
2022/12/10 05:59:00;;;;;;;285.60;40.15;;;;;;;;;;5009648;28;20099;-70
2022/12/10 06:01:28;;;;;;;483.52;48.40;;;;;;;;;;5007785;28;20088;-70
2022/12/10 06:03:54;;;;;;;295.50;41.03;;;;;;;;;;5015021;28;20041;-69
2022/12/10 06:06:24;;;;;;;446.05;44.15;;;;;;;;;;5016286;28;20029;-70
2022/12/10 06:08:50;;;;;;;478.67;47.10;;;;;;;;;;5027571;28;20034;-70
2022/12/10 06:11:16;;;;;;;246.00;37.70;;;;;;;;;;5015786;28;20045;-70
2022/12/10 06:13:42;;;;;;;330.58;36.85;;;;;;;;;;5019237;28;20402;-69
2022/12/10 06:16:10;;;;;;;328.58;38.70;;;;;;;;;;5014239;28;20487;-69
2022/12/10 06:18:36;;;;;;;258.00;38.30;;;;;;;;;;5012469;28;20030;-69
2022/12/10 06:21:06;;;;;;;335.90;39.60;;;;;;;;;;5010207;28;20053;-69
2022/12/10 06:23:34;;;;;;;255.32;34.22;;;;;;;;;;5000742;28;20053;-71
2022/12/10 06:26:03;;;;;;;365.83;38.42;;;;;;;;;;5018902;28;20132;-70
2022/12/10 06:28:29;;;;;;;307.17;39.00;;;;;;;;;;5019009;28;20469;-70
2022/12/10 06:30:55;;;;;;;250.40;35.78;;;;;;;;;;5012455;28;20038;-70
2022/12/10 06:33:21;;;;;;;250.23;33.20;;;;;;;;;;5011830;28;20841;-70
2022/12/10 06:35:47;;;;;;;227.82;31.25;;;;;;;;;;5013689;28;20042;-70
2022/12/10 06:38:13;;;;;;;260.80;31.90;;;;;;;;;;5006365;28;20049;-70
2022/12/10 06:40:40;;;;;;;359.92;37.38;;;;;;;;;;5015587;28;20505;-70
2022/12/10 06:43:06;;;;;;;190.70;31.15;;;;;;;;;;4987420;28;20572;-71
2022/12/10 06:45:32;;;;;;;207.98;32.17;;;;;;;;;;5010403;28;20037;-70
2022/12/10 06:47:58;;;;;;;268.88;29.50;;;;;;;;;;5006329;28;20037;-71
2022/12/10 06:50:24;;;;;;;249.73;33.72;;;;;;;;;;5009435;28;20030;-72
2022/12/10 06:52:50;;;;;;;290.73;56.30;;;;;;;;;;5005209;28;20033;-71
2022/12/10 06:55:17;;;;;;;140.65;27.73;;;;;;;;;;4983884;28;20064;-70
2022/12/10 06:57:43;;;;;;;175.32;28.95;;;;;;;;;;4996673;28;20443;-70
2022/12/10 07:00:10;;;;;;;270.42;28.92;;;;;;;;;;5020752;28;20121;-70
2022/12/10 07:02:36;;;;;;;196.18;25.88;;;;;;;;;;5016766;28;20034;-72
2022/12/10 07:05:02;;;;;;;232.30;26.25;;;;;;;;;;5007595;28;20026;-72
2022/12/10 07:07:28;;;;;;;269.85;24.98;;;;;;;;;;5007126;28;20487;-72
2022/12/10 07:09:54;;;;;;;221.38;24.90;;;;;;;;;;4991234;28;20636;-71
2022/12/10 07:12:20;;;;;;;245.65;25.90;;;;;;;;;;5016111;28;20462;-72
2022/12/10 07:14:47;;;;;;;183.88;26.95;;;;;;;;;;5009941;28;20080;-72
2022/12/10 07:17:13;;;;;;;178.20;24.52;;;;;;;;;;5010727;28;20117;-71
2022/12/10 07:19:39;;;;;;;249.32;27.60;;;;;;;;;;5008668;28;20030;-71
2022/12/10 07:22:05;;;;;;;249.27;27.23;;;;;;;;;;5012664;28;20113;-72
2022/12/10 07:24:31;;;;;;;191.35;24.00;;;;;;;;;;5004413;28;20034;-71
2022/12/10 07:26:57;;;;;;;237.75;26.65;;;;;;;;;;5011087;28;20042;-71
2022/12/10 07:29:23;;;;;;;233.65;24.80;;;;;;;;;;5007177;28;20040;-70
2022/12/10 07:31:49;;;;;;;255.25;37.88;;;;;;;;;;5009394;28;20056;-71
2022/12/10 07:34:16;;;;;;;259.33;24.95;;;;;;;;;;5009846;28;20045;-71
2022/12/10 07:36:42;;;;;;;265.58;25.70;;;;;;;;;;5008698;28;20029;-70
2022/12/10 07:39:09;;;;;;;179.32;21.95;;;;;;;;;;5011365;28;20029;-72
2022/12/10 07:41:36;;;;;;;282.17;24.92;;;;;;;;;;5012700;28;21105;-71
2022/12/10 07:44:03;;;;;;;207.35;26.27;;;;;;;;;;5006314;28;20034;-69
2022/12/10 07:46:31;;;;;;;177.73;23.45;;;;;;;;;;5009062;28;20031;-74
2022/12/10 07:48:57;;;;;;;195.93;33.40;;;;;;;;;;5014451;28;20045;-70
2022/12/10 07:51:23;;;;;;;165.80;24.98;;;;;;;;;;5007652;28;20478;-71
2022/12/10 07:53:52;;;;;;;233.38;30.67;;;;;;;;;;5011468;28;20045;-70
2022/12/10 07:56:21;;;;;;;185.85;29.13;;;;;;;;;;4989393;28;20582;-70
2022/12/10 07:58:47;;;;;;;97.82;25.27;;;;;;;;;;5009839;28;20080;-69
2022/12/10 08:01:15;;;;;;;262.23;29.23;;;;;;;;;;5002168;28;20030;-69
2022/12/10 08:03:41;;;;;;;130.55;24.42;;;;;;;;;;5010215;28;20018;-72
2022/12/10 08:06:08;;;;;;;178.77;26.85;;;;;;;;;;5001950;28;20561;-69
2022/12/10 08:08:35;;;;;;;161.00;25.00;;;;;;;;;;5005216;28;20033;-72
2022/12/10 08:11:02;;;;;;;214.25;29.10;;;;;;;;;;5007365;28;20127;-71
2022/12/10 08:13:28;;;;;;;205.15;26.27;;;;;;;;;;5007703;28;20060;-74
2022/12/10 08:15:55;;;;;;;292.00;30.40;;;;;;;;;;5007757;28;20100;-72
2022/12/10 08:18:21;;;;;;;260.05;25.90;;;;;;;;;;4988608;28;20044;-72
2022/12/10 08:20:47;;;;;;;198.55;26.50;;;;;;;;;;5009448;28;20034;-73
2022/12/10 08:23:13;;;;;;;248.57;25.75;;;;;;;;;;4989300;28;21233;-70
2022/12/10 08:25:40;;;;;;;273.33;31.85;;;;;;;;;;5010465;28;20038;-72
2022/12/10 08:28:07;;;;;;;228.50;38.05;;;;;;;;;;5013964;28;20033;-70
2022/12/10 08:30:33;;;;;;;177.48;28.08;;;;;;;;;;5004247;28;20447;-71
2022/12/10 08:32:59;;;;;;;171.32;37.95;;;;;;;;;;5009107;28;20038;-69
2022/12/10 08:35:25;;;;;;;132.57;24.55;;;;;;;;;;5010141;28;20111;-70
2022/12/10 08:37:51;;;;;;;136.20;25.10;;;;;;;;;;5000266;28;20037;-70
2022/12/10 08:40:17;;;;;;;135.93;24.80;;;;;;;;;;5000724;28;20502;-69
2022/12/10 08:42:43;;;;;;;132.82;23.15;;;;;;;;;;5009602;28;20112;-69
2022/12/10 08:45:10;;;;;;;97.63;23.05;;;;;;;;;;5007065;28;20034;-69
2022/12/10 08:47:36;;;;;;;152.30;40.03;;;;;;;;;;5008285;28;20037;-69
2022/12/10 08:50:02;;;;;;;238.38;54.72;;;;;;;;;;5011711;28;20025;-70
2022/12/10 08:52:29;;;;;;;116.75;26.27;;;;;;;;;;5009437;28;20025;-69
2022/12/10 08:54:55;;;;;;;197.13;25.83;;;;;;;;;;4990299;28;20141;-70
2022/12/10 08:57:21;;;;;;;128.15;23.00;;;;;;;;;;5013983;28;20042;-69
2022/12/10 08:59:47;;;;;;;136.73;21.02;;;;;;;;;;5007221;28;20427;-70
2022/12/10 09:02:13;;;;;;;151.85;22.65;;;;;;;;;;4985854;28;20030;-69
2022/12/10 09:04:39;;;;;;;115.10;21.63;;;;;;;;;;5001960;28;21062;-70
2022/12/10 09:07:05;;;;;;;104.45;22.08;;;;;;;;;;4990009;28;20030;-72
2022/12/10 09:09:32;;;;;;;134.20;30.33;;;;;;;;;;5006939;28;20043;-71
2022/12/10 09:11:58;;;;;;;127.05;23.98;;;;;;;;;;5011573;28;20030;-69
2022/12/10 09:14:24;;;;;;;153.88;22.20;;;;;;;;;;5013304;28;20046;-73
2022/12/10 09:16:50;;;;;;;106.47;24.60;;;;;;;;;;5011324;28;20480;-70
2022/12/10 09:19:16;;;;;;;164.32;26.77;;;;;;;;;;5019906;28;20033;-70
2022/12/10 09:21:42;;;;;;;83.75;23.08;;;;;;;;;;5013227;28;20037;-71
2022/12/10 09:24:09;;;;;;;111.10;27.58;;;;;;;;;;5014068;28;20034;-70
2022/12/10 09:26:35;;;;;;;148.27;26.35;;;;;;;;;;5011908;28;20386;-70
2022/12/10 09:29:01;;;;;;;84.72;23.25;;;;;;;;;;5011787;28;20483;-68
2022/12/10 09:31:28;;;;;;;115.70;22.20;;;;;;;;;;4994164;28;20084;-71
2022/12/10 09:33:54;;;;;;;121.18;25.23;;;;;;;;;;5013670;28;20057;-70
2022/12/10 09:36:21;;;;;;;152.73;25.10;;;;;;;;;;5019468;28;20084;-70
2022/12/10 09:38:47;;;;;;;121.57;21.75;;;;;;;;;;4984294;28;20072;-70
2022/12/10 09:41:32;;;;;;;130.23;22.25;;;;;;;;;;5018731;28;20046;-70
2022/12/10 09:44:24;;;;;;;118.03;25.10;;;;;;;;;;4999944;28;20060;-71
2022/12/10 09:46:50;;;;;;;96.30;23.08;;;;;;;;;;4983469;28;20046;-70
2022/12/10 09:49:22;;;;;;;65.13;19.92;;;;;;;;;;5006920;28;20041;-70
2022/12/10 09:51:49;;;;;;;159.73;22.25;;;;;;;;;;5021161;28;20045;-71
2022/12/10 09:54:31;;;;;;;193.57;27.17;;;;;;;;;;5013211;28;20416;-70
2022/12/10 09:56:57;;;;;;;;;;;;;;;;;;5012568;28;20375;-72
2022/12/10 09:59:33;;;;;;;157.43;25.23;;;;;;;;;;4989831;28;19905;-70
2022/12/10 10:02:13;;;;;;;157.43;24.02;;;;;;;;;;4993138;28;20113;-72
2022/12/10 10:04:39;;;;;;;127.70;23.63;;;;;;;;;;5004254;28;20045;-71
2022/12/10 10:07:06;;;;;;;114.30;22.63;;;;;;;;;;5011735;28;20030;-72
2022/12/10 10:09:35;;;;;;;119.65;22.15;;;;;;;;;;5010477;28;20100;-71
2022/12/10 10:12:01;;;;;;;148.85;25.58;;;;;;;;;;5015901;28;20022;-71
2022/12/10 10:14:29;;;;;;;135.38;22.48;;;;;;;;;;5015195;28;20048;-71
2022/12/10 10:17:08;;;;;;;183.23;22.33;;;;;;;;;;5011499;28;20018;-71
2022/12/10 10:19:37;;;;;;;115.85;20.35;;;;;;;;;;5014588;28;20021;-70
2022/12/10 10:22:04;;;;;;;110.28;22.58;;;;;;;;;;5009146;28;20045;-71
2022/12/10 10:24:37;;;;;;;105.70;20.42;;;;;;;;;;5009270;28;20144;-71
2022/12/10 10:27:14;;;;;;;171.88;22.00;;;;;;;;;;5004360;28;20025;-70
2022/12/10 10:29:40;;;;;;;216.57;22.63;;;;;;;;;;5013846;28;20026;-70
2022/12/10 10:32:17;;;;;;;123.10;23.30;;;;;;;;;;5012649;28;20025;-71
2022/12/10 10:34:44;;;;;;;82.32;23.92;;;;;;;;;;5004525;28;20033;-70
2022/12/10 10:37:19;;;;;;;90.00;21.13;;;;;;;;;;5014727;28;20382;-69
2022/12/10 10:39:50;;;;;;;89.60;20.33;;;;;;;;;;5003228;28;20029;-69
2022/12/10 10:42:25;;;;;;;95.43;19.73;;;;;;;;;;5011327;28;20021;-71
2022/12/10 10:44:51;;;;;;;76.75;21.20;;;;;;;;;;5008764;28;20038;-72
2022/12/10 10:47:26;;;;;;;141.68;25.17;;;;;;;;;;5013759;28;20046;-69
2022/12/10 10:49:53;;;;;;;92.13;41.10;;;;;;;;;;5008798;28;20037;-70
2022/12/10 10:52:19;;;;;;;77.68;23.50;;;;;;;;;;5019348;28;20125;-73
2022/12/10 10:54:46;;;;;;;60.50;22.58;;;;;;;;;;5010905;28;20050;-71
2022/12/10 10:57:15;;;;;;;62.78;23.48;;;;;;;;;;5014722;28;20041;-71
2022/12/10 10:59:41;;;;;;;97.97;20.90;;;;;;;;;;5000564;28;20030;-71
2022/12/10 11:02:18;;;;;;;76.93;22.23;;;;;;;;;;5005362;28;20033;-72
2022/12/10 11:04:47;;;;;;;67.25;20.38;;;;;;;;;;5017428;28;20133;-73
2022/12/10 11:07:25;;;;;;;60.00;18.35;;;;;;;;;;5015914;28;20096;-71
2022/12/10 11:09:52;;;;;;;57.42;20.92;;;;;;;;;;5010378;28;20026;-71
2022/12/10 11:12:31;;;;;;;73.07;23.80;;;;;;;;;;5002827;28;20434;-72
2022/12/10 11:14:57;;;;;;;64.53;22.77;;;;;;;;;;5013718;28;20053;-71
2022/12/10 11:17:24;;;;;;;75.10;25.77;;;;;;;;;;5008726;28;20084;-70
2022/12/10 11:19:58;;;;;;;101.78;37.80;;;;;;;;;;5013357;28;20295;-69
2022/12/10 11:22:26;;;;;;;73.78;21.27;;;;;;;;;;5014972;28;20546;-70
2022/12/10 11:24:52;;;;;;;62.75;19.67;;;;;;;;;;5013400;28;20102;-69
2022/12/10 11:27:36;;;;;;;58.75;20.38;;;;;;;;;;5012375;28;20045;-70
2022/12/10 11:30:05;;;;;;;88.88;22.63;;;;;;;;;;5000645;28;20026;-70
2022/12/10 11:32:39;;;;;;;49.47;20.30;;;;;;;;;;5019405;28;20383;-69
2022/12/10 11:35:11;;;;;;;60.78;20.45;;;;;;;;;;5004656;28;20032;-71
2022/12/10 11:37:40;;;;;;;61.72;21.50;;;;;;;;;;5000121;28;20026;-70
2022/12/10 11:40:06;;;;;;;62.47;22.55;;;;;;;;;;5007900;28;20017;-70
2022/12/10 11:42:51;;;;;;;62.00;22.08;;;;;;;;;;5022295;28;20021;-70
2022/12/10 11:45:23;;;;;;;54.42;21.00;;;;;;;;;;5011340;28;20088;-70
2022/12/10 11:47:49;;;;;;;;;;;;;;;;;;5013331;28;20084;-72
2022/12/10 11:50:32;;;;;;;50.08;22.50;;;;;;;;;;5006621;28;19913;-69
2022/12/10 11:53:04;;;;;;;50.13;22.17;;;;;;;;;;4992286;28;20021;-70
2022/12/10 11:55:30;;;;;;;41.45;19.83;;;;;;;;;;5005995;28;20034;-69
2022/12/10 11:57:56;;;;;;;52.80;20.85;;;;;;;;;;4987884;28;20057;-71
2022/12/10 12:00:24;;;;;;;60.65;25.25;;;;;;;;;;5006986;28;20037;-69
2022/12/10 12:02:50;;;;;;;51.40;22.63;;;;;;;;;;5008707;28;20033;-70
2022/12/10 12:05:19;;;;;;;61.78;26.83;;;;;;;;;;4992395;28;20025;-69
2022/12/10 12:07:51;;;;;;;54.83;23.80;;;;;;;;;;4993950;28;20029;-69
2022/12/10 12:10:36;;;;;;;55.05;23.60;;;;;;;;;;5011928;28;20342;-71
2022/12/10 12:13:05;;;;;;;63.35;23.20;;;;;;;;;;5006612;28;20029;-69
2022/12/10 12:15:37;;;;;;;60.72;24.50;;;;;;;;;;5009792;28;20467;-69
2022/12/10 12:18:03;;;;;;;50.22;24.00;;;;;;;;;;5003360;28;20032;-69
2022/12/10 12:20:40;;;;;;;56.58;22.42;;;;;;;;;;5008848;28;20108;-70
2022/12/10 12:23:15;;;;;;;58.47;22.63;;;;;;;;;;5002699;28;20496;-70
2022/12/10 12:25:44;;;;;;;59.72;22.38;;;;;;;;;;4984463;28;20030;-70
2022/12/10 12:28:14;;;;;;;54.10;23.70;;;;;;;;;;5015556;28;20030;-70
2022/12/10 12:30:42;;;;;;;57.55;23.85;;;;;;;;;;5012590;28;20084;-70
2022/12/10 12:33:13;;;;;;;62.97;26.02;;;;;;;;;;5005442;28;20022;-70
2022/12/10 12:35:42;;;;;;;67.10;24.38;;;;;;;;;;5007063;28;20041;-70
2022/12/10 12:38:23;;;;;;;67.15;25.65;;;;;;;;;;4987148;28;20019;-70
2022/12/10 12:40:52;;;;;;;62.05;27.70;;;;;;;;;;5006417;28;20038;-69
2022/12/10 12:43:24;;;;;;;58.63;25.92;;;;;;;;;;5006891;28;20022;-69
2022/12/10 12:45:53;;;;;;;65.55;26.58;;;;;;;;;;4997398;28;20041;-71
2022/12/10 12:48:19;;;;;;;75.32;28.98;;;;;;;;;;5008297;28;20032;-71
2022/12/10 12:51:15;;;;;;;54.05;24.98;;;;;;;;;;5008069;28;20047;-70
2022/12/10 12:53:41;;;;;;;73.32;26.40;;;;;;;;;;4915649;28;20478;-70
2022/12/10 12:56:25;;;;;;;61.78;25.52;;;;;;;;;;5007578;28;20018;-71
2022/12/10 12:59:07;;;;;;;57.42;23.80;;;;;;;;;;5002833;28;20042;-71
2022/12/10 13:01:38;;;;;;;61.55;22.83;;;;;;;;;;5005027;28;22020;-69
2022/12/10 13:04:04;;;;;;;60.08;24.80;;;;;;;;;;4990929;28;20140;-69
2022/12/10 13:06:32;;;;;;;58.08;24.52;;;;;;;;;;5021176;28;20518;-70
2022/12/10 13:09:17;;;;;;;53.78;26.10;;;;;;;;;;5001550;28;20045;-68
2022/12/10 13:12:00;;;;;;;56.75;25.38;;;;;;;;;;4998789;28;20463;-70
2022/12/10 13:14:31;;;;;;;54.83;25.33;;;;;;;;;;5002441;28;20121;-69
2022/12/10 13:17:00;;;;;;;72.35;25.02;;;;;;;;;;5010936;28;20138;-70
2022/12/10 13:19:28;;;;;;;75.43;25.95;;;;;;;;;;5008950;28;20102;-69
2022/12/10 13:22:06;;;;;;;55.13;25.13;;;;;;;;;;5017537;28;20053;-70
2022/12/10 13:24:35;;;;;;;55.42;24.58;;;;;;;;;;5016917;28;20184;-70
2022/12/10 13:27:10;;;;;;;73.63;27.38;;;;;;;;;;5010724;28;20341;-69
2022/12/10 13:29:57;;;;;;;57.33;24.75;;;;;;;;;;5011592;28;20454;-69
2022/12/10 13:32:29;;;;;;;109.68;28.30;;;;;;;;;;5014735;28;20077;-68
2022/12/10 13:35:08;;;;;;;72.78;28.35;;;;;;;;;;4992518;28;20033;-69
2022/12/10 13:37:49;;;;;;;71.03;32.03;;;;;;;;;;5016448;28;20061;-69
2022/12/10 13:44:23;;;;;;;108.53;32.72;;;;;;;;;;5014010;28;20338;-69
2022/12/10 13:46:26;;;;;;;80.78;27.33;;;;;;;;;;5005012;28;20032;-70
2022/12/10 13:48:54;;;;;;;68.72;26.98;;;;;;;;;;5013813;28;20064;-70
2022/12/10 13:51:26;;;;;;;81.45;27.73;;;;;;;;;;5019192;28;20526;-69
2022/12/10 13:53:55;;;;;;;97.97;26.30;;;;;;;;;;5008217;28;20049;-69
2022/12/10 13:56:29;;;;;;;129.20;29.48;;;;;;;;;;5009162;28;20038;-69
2022/12/10 13:59:14;;;;;;;101.55;29.38;;;;;;;;;;5021706;28;20037;-70
2022/12/10 14:01:45;;;;;;;112.70;29.65;;;;;;;;;;5019966;28;20117;-69
2022/12/10 14:04:26;;;;;;;87.45;27.90;;;;;;;;;;4995531;28;20030;-71
2022/12/10 14:06:52;;;;;;;77.28;26.42;;;;;;;;;;5004397;28;20478;-71
2022/12/10 14:09:25;;;;;;;87.07;27.73;;;;;;;;;;5000397;28;20088;-70
2022/12/10 14:11:55;;;;;;;109.32;27.25;;;;;;;;;;5015950;28;20430;-69
2022/12/10 14:14:27;;;;;;;88.38;29.08;;;;;;;;;;5016004;28;20096;-70
2022/12/10 14:16:54;;;;;;;67.55;27.00;;;;;;;;;;5013517;28;20114;-69
2022/12/10 14:19:20;;;;;;;73.70;29.27;;;;;;;;;;5010009;28;20045;-69
2022/12/10 14:21:47;;;;;;;131.73;32.55;;;;;;;;;;5025601;28;20052;-69
2022/12/10 14:24:30;;;;;;;93.65;30.15;;;;;;;;;;5022045;28;20117;-69
2022/12/10 14:26:56;;;;;;;;;;;;;;;;;;5022485;28;20131;-70
2022/12/10 14:29:22;;;;;;;90.20;31.48;;;;;;;;;;5016467;28;20483;-69
2022/12/10 14:31:49;;;;;;;109.40;31.60;;;;;;;;;;5013105;28;20344;-69
2022/12/10 14:34:17;;;;;;;163.25;31.20;;;;;;;;;;5017187;28;20069;-70
2022/12/10 14:36:51;;;;;;;131.57;35.50;;;;;;;;;;5016684;28;20036;-70